createdAt,value
2023-04-16T00:02:30.534Z,10.00
2023-04-16T00:05:40.253Z,10.00
2023-04-16T00:08:48.673Z,10.10
2023-04-16T00:11:57.515Z,10.00
2023-04-16T00:15:06.420Z,10.00
2023-04-16T00:18:14.737Z,9.90
2023-04-16T00:21:24.549Z,9.90
2023-04-16T00:24:32.872Z,9.90
2023-04-16T00:27:41.386Z,9.80
2023-04-16T00:30:49.725Z,9.80
2023-04-16T00:33:58.820Z,9.70
2023-04-16T00:37:08.598Z,9.80
2023-04-16T00:40:16.976Z,9.70
2023-04-16T00:43:26.617Z,9.70
2023-04-16T00:46:36.172Z,9.70
2023-04-16T00:49:44.615Z,9.80
2023-04-16T00:52:54.439Z,9.80
2023-04-16T00:56:04.481Z,9.70
2023-04-16T00:59:13.208Z,9.60
2023-04-16T01:02:21.731Z,9.60
2023-04-16T01:05:32.082Z,9.60
2023-04-16T01:08:42.018Z,9.60
2023-04-16T01:11:50.592Z,9.60
2023-04-16T01:14:59.022Z,9.50
2023-04-16T01:18:15.993Z,9.60
2023-04-16T01:21:25.847Z,9.50
2023-04-16T01:24:34.296Z,9.40
2023-04-16T01:27:42.728Z,9.40
2023-04-16T01:30:51.137Z,9.30
2023-04-16T01:34:25.593Z,9.40
2023-04-16T01:37:35.380Z,9.40
2023-04-16T01:40:44.028Z,9.40
2023-04-16T01:43:53.612Z,9.40
2023-04-16T01:47:02.073Z,9.40
2023-04-16T01:50:11.396Z,9.20
2023-04-16T01:53:21.237Z,9.20
2023-04-16T01:56:29.682Z,9.30
2023-04-16T01:59:38.326Z,9.30
2023-04-16T02:02:49.405Z,9.20
2023-04-16T02:06:06.012Z,9.20
2023-04-16T02:09:15.813Z,9.20
2023-04-16T02:12:24.635Z,9.20
2023-04-16T02:15:32.951Z,9.20
2023-04-16T02:18:41.576Z,9.10
2023-04-16T02:21:50.385Z,9.00
2023-04-16T02:25:00.146Z,9.00
2023-04-16T02:28:08.929Z,8.90
2023-04-16T02:31:22.462Z,8.80
2023-04-16T02:34:31.334Z,8.80
2023-04-16T02:37:40.836Z,8.80
2023-04-16T02:40:50.669Z,8.70
2023-04-16T02:43:59.200Z,8.70
2023-04-16T02:47:07.563Z,8.70
2023-04-16T02:50:16.323Z,8.70
2023-04-16T02:53:24.703Z,8.70
2023-04-16T02:56:34.515Z,8.70
2023-04-16T02:59:42.905Z,8.70
2023-04-16T03:02:51.590Z,8.70
2023-04-16T03:06:00.121Z,8.70
2023-04-16T03:09:08.875Z,8.60
2023-04-16T03:12:18.894Z,8.60
2023-04-16T03:15:27.539Z,8.60
2023-04-16T03:18:35.876Z,8.50
2023-04-16T03:21:44.204Z,8.50
2023-04-16T03:24:52.829Z,8.50
2023-04-16T03:28:03.816Z,8.50
2023-04-16T03:31:12.470Z,8.50
2023-04-16T03:34:21.441Z,8.40
2023-04-16T03:37:30.230Z,8.50
2023-04-16T03:40:38.751Z,8.50
2023-04-16T03:43:48.585Z,8.50
2023-04-16T03:46:58.081Z,8.50
2023-04-16T03:50:07.201Z,8.50
2023-04-16T03:53:15.868Z,8.50
2023-04-16T03:56:24.543Z,8.50
2023-04-16T03:59:35.792Z,8.50
2023-04-16T04:02:44.474Z,8.40
2023-04-16T04:05:59.235Z,8.50
2023-04-16T04:09:11.544Z,8.30
2023-04-16T04:12:20.090Z,8.30
2023-04-16T04:15:30.924Z,8.30
2023-04-16T04:18:39.314Z,8.30
2023-04-16T04:21:48.167Z,8.40
2023-04-16T04:24:58.746Z,8.30
2023-04-16T04:28:09.487Z,8.30
2023-04-16T04:31:19.344Z,8.30
2023-04-16T04:34:27.925Z,8.20
2023-04-16T04:37:40.142Z,8.30
2023-04-16T04:41:01.082Z,8.20
2023-04-16T04:44:17.261Z,8.30
2023-04-16T04:47:27.257Z,8.30
2023-04-16T04:50:35.828Z,8.30
2023-04-16T04:53:44.726Z,8.30
2023-04-16T04:56:53.638Z,8.30
2023-04-16T05:00:04.232Z,8.30
2023-04-16T05:03:22.995Z,8.30
2023-04-16T05:06:31.541Z,8.30
2023-04-16T05:09:39.902Z,8.40
2023-04-16T05:12:49.198Z,8.30
2023-04-16T05:15:57.984Z,8.30
2023-04-16T05:19:08.337Z,8.30
2023-04-16T05:22:18.941Z,8.40
2023-04-16T05:25:27.319Z,8.30
2023-04-16T05:28:35.662Z,8.40
2023-04-16T05:31:44.154Z,8.40
2023-04-16T05:34:53.940Z,8.40
2023-04-16T05:38:02.341Z,8.30
2023-04-16T05:41:10.712Z,8.30
2023-04-16T05:44:19.060Z,8.30
2023-04-16T05:47:27.417Z,8.30
2023-04-16T05:50:37.499Z,8.30
2023-04-16T05:53:46.051Z,8.40
2023-04-16T05:56:54.343Z,8.30
2023-04-16T06:00:02.826Z,8.40
2023-04-16T06:03:20.675Z,8.30
2023-04-16T06:06:30.554Z,8.20
2023-04-16T06:09:38.925Z,8.20
2023-04-16T06:12:47.287Z,8.20
2023-04-16T06:15:55.737Z,8.30
2023-04-16T06:19:04.076Z,8.30
2023-04-16T06:22:13.914Z,8.40
2023-04-16T06:25:22.264Z,8.40
2023-04-16T06:28:30.666Z,8.50
2023-04-16T06:31:39.095Z,8.60
2023-04-16T06:34:47.447Z,8.70
2023-04-16T06:37:57.152Z,8.80
2023-04-16T06:41:06.039Z,8.80
2023-04-16T06:44:14.726Z,8.90
2023-04-16T06:47:23.200Z,8.90
2023-04-16T06:50:31.633Z,8.80
2023-04-16T06:53:42.525Z,8.80
2023-04-16T06:56:50.870Z,8.90
2023-04-16T06:59:59.201Z,8.90
2023-04-16T07:03:07.728Z,8.90
2023-04-16T07:06:16.225Z,9.00
2023-04-16T07:09:26.853Z,9.10
2023-04-16T07:12:35.343Z,9.10
2023-04-16T07:15:43.625Z,9.10
2023-04-16T07:18:51.991Z,9.10
2023-04-16T07:22:00.473Z,9.10
2023-04-16T07:25:11.025Z,9.20
2023-04-16T07:28:19.337Z,9.20
2023-04-16T07:31:28.090Z,9.20
2023-04-16T07:34:36.505Z,9.20
2023-04-16T07:37:45.118Z,9.20
2023-04-16T07:40:54.874Z,9.30
2023-04-16T07:44:03.348Z,9.30
2023-04-16T07:47:11.711Z,9.30
2023-04-16T07:50:20.527Z,9.40
2023-04-16T07:53:29.064Z,9.40
2023-04-16T07:56:38.836Z,9.50
2023-04-16T07:59:47.212Z,9.50
2023-04-16T08:02:55.744Z,9.60
2023-04-16T08:06:04.375Z,9.70
2023-04-16T08:09:12.858Z,9.70
2023-04-16T08:12:23.146Z,9.90
2023-04-16T08:15:32.429Z,9.90
2023-04-16T08:18:40.874Z,9.90
2023-04-16T08:21:49.344Z,9.90
2023-04-16T08:24:58.204Z,10.10
2023-04-16T08:28:08.098Z,10.30
2023-04-16T08:31:16.904Z,10.40
2023-04-16T08:34:25.462Z,10.60
2023-04-16T08:37:34.129Z,10.70
2023-04-16T08:40:44.030Z,10.80
2023-04-16T08:43:58.610Z,10.80
2023-04-16T08:47:10.559Z,10.90
2023-04-16T08:50:24.217Z,11.00
2023-04-16T08:53:37.769Z,11.00
2023-04-16T08:56:46.306Z,11.00
2023-04-16T08:59:57.169Z,11.20
2023-04-16T09:03:06.100Z,11.30
2023-04-16T09:06:15.948Z,11.40
2023-04-16T09:09:24.872Z,11.50
2023-04-16T09:12:33.459Z,11.50
2023-04-16T09:15:43.961Z,11.50
2023-04-16T09:18:53.558Z,11.50
2023-04-16T09:22:02.017Z,11.40
2023-04-16T09:25:11.442Z,11.40
2023-04-16T09:28:40.952Z,11.40
2023-04-16T09:32:03.369Z,11.50
2023-04-16T09:35:11.761Z,11.60
2023-04-16T09:38:21.206Z,11.70
2023-04-16T09:41:32.097Z,11.70
2023-04-16T09:44:40.678Z,11.90
2023-04-16T09:47:50.526Z,12.00
2023-04-16T09:50:59.098Z,12.10
2023-04-16T09:54:07.803Z,12.20
2023-04-16T09:57:17.152Z,12.30
2023-04-16T10:00:25.629Z,12.40
2023-04-16T10:03:36.977Z,12.50
2023-04-16T10:06:48.581Z,12.60
2023-04-16T10:09:57.940Z,12.70
2023-04-16T10:13:06.656Z,12.90
2023-04-16T10:16:15.187Z,13.10
2023-04-16T10:19:25.946Z,13.20
2023-04-16T10:22:34.753Z,13.30
2023-04-16T10:25:45.147Z,13.40
2023-04-16T10:28:53.832Z,13.50
2023-04-16T10:32:02.944Z,13.50
2023-04-16T10:35:17.557Z,13.60
2023-04-16T10:38:27.811Z,13.70
2023-04-16T10:41:36.646Z,13.90
2023-04-16T10:44:47.246Z,14.00
2023-04-16T10:47:58.383Z,14.00
2023-04-16T10:51:08.557Z,14.10
2023-04-16T10:54:26.849Z,14.20
2023-04-16T10:57:35.401Z,14.30
2023-04-16T11:00:51.290Z,14.50
2023-04-16T11:04:03.040Z,14.50
2023-04-16T11:07:21.535Z,14.70
2023-04-16T11:10:30.051Z,14.80
2023-04-16T11:13:38.881Z,14.80
2023-04-16T11:16:47.640Z,14.90
2023-04-16T11:19:56.940Z,15.00
2023-04-16T11:23:13.258Z,15.00
2023-04-16T11:26:24.465Z,15.30
2023-04-16T11:29:34.235Z,15.50
2023-04-16T11:32:42.715Z,15.50
2023-04-16T11:35:58.993Z,15.70
2023-04-16T11:39:08.998Z,15.80
2023-04-16T11:42:22.802Z,15.70
2023-04-16T11:45:31.298Z,15.70
2023-04-16T11:48:53.000Z,15.60
2023-04-16T11:52:01.828Z,15.60
2023-04-16T11:55:11.830Z,15.50
2023-04-16T11:58:22.362Z,15.60
2023-04-16T12:01:31.389Z,15.70
2023-04-16T12:04:39.842Z,15.70
2023-04-16T12:07:48.379Z,15.80
2023-04-16T12:10:59.712Z,15.80
2023-04-16T12:14:12.062Z,15.80
2023-04-16T12:17:21.203Z,15.70
2023-04-16T12:20:41.638Z,15.80
2023-04-16T12:23:54.937Z,15.80
2023-04-16T12:27:06.855Z,15.90
2023-04-16T12:30:16.702Z,15.90
2023-04-16T12:33:25.204Z,15.80
2023-04-16T12:36:33.567Z,15.70
2023-04-16T12:39:41.884Z,15.70
2023-04-16T12:42:51.738Z,15.70
2023-04-16T12:46:02.225Z,15.60
2023-04-16T12:49:13.140Z,15.60
2023-04-16T12:52:23.298Z,15.50
2023-04-16T12:55:32.260Z,15.40
2023-04-16T12:58:42.005Z,15.40
2023-04-16T13:01:50.449Z,15.40
2023-04-16T13:04:59.072Z,15.50
2023-04-16T13:08:07.973Z,15.60
2023-04-16T13:11:16.558Z,15.60
2023-04-16T13:14:26.330Z,15.60
2023-04-16T13:17:34.761Z,15.70
2023-04-16T13:20:43.352Z,15.80
2023-04-16T13:23:51.958Z,15.80
2023-04-16T13:27:00.583Z,15.90
2023-04-16T13:30:11.524Z,15.90
2023-04-16T13:33:20.857Z,15.90
2023-04-16T13:36:30.197Z,16.00
2023-04-16T13:39:38.551Z,15.90
2023-04-16T13:42:46.968Z,15.90
2023-04-16T13:45:56.995Z,16.10
2023-04-16T13:49:05.440Z,16.20
2023-04-16T13:52:13.814Z,16.20
2023-04-16T13:55:22.230Z,16.10
2023-04-16T13:58:30.780Z,16.30
2023-04-16T14:01:41.339Z,16.40
2023-04-16T14:04:49.841Z,16.40
2023-04-16T14:07:58.358Z,16.30
2023-04-16T14:11:06.755Z,16.40
2023-04-16T14:14:15.232Z,16.40
2023-04-16T14:17:25.092Z,16.40
2023-04-16T14:20:33.582Z,16.50
2023-04-16T14:23:41.901Z,16.40
2023-04-16T14:26:50.268Z,16.40
2023-04-16T14:29:58.800Z,16.40
2023-04-16T14:33:08.681Z,16.30
2023-04-16T14:36:17.144Z,16.30
2023-04-16T14:39:25.959Z,16.40
2023-04-16T14:42:34.390Z,16.40
2023-04-16T14:45:42.821Z,16.50
2023-04-16T14:48:52.627Z,16.50
2023-04-16T14:52:02.195Z,16.50
2023-04-16T14:55:10.830Z,16.50
2023-04-16T14:58:19.390Z,16.50
2023-04-16T15:01:27.838Z,16.40
2023-04-16T15:04:37.780Z,16.50
2023-04-16T15:07:46.271Z,16.50
2023-04-16T15:10:54.726Z,16.40
2023-04-16T15:14:03.202Z,16.30
2023-04-16T15:17:11.935Z,16.20
2023-04-16T15:20:22.030Z,16.20
2023-04-16T15:23:30.399Z,16.20
2023-04-16T15:26:38.889Z,16.20
2023-04-16T15:29:49.445Z,16.10
2023-04-16T15:32:58.181Z,16.10
2023-04-16T15:36:08.454Z,16.00
2023-04-16T15:39:16.922Z,16.00
2023-04-16T15:42:26.036Z,16.00
2023-04-16T15:45:34.459Z,15.90
2023-04-16T15:48:42.894Z,15.90
2023-04-16T15:51:52.793Z,15.90
2023-04-16T15:55:03.587Z,15.80
2023-04-16T15:58:12.940Z,15.80
2023-04-16T16:01:22.359Z,15.70
2023-04-16T16:04:30.849Z,15.70
2023-04-16T16:07:41.073Z,15.70
2023-04-16T16:10:49.444Z,15.70
2023-04-16T16:13:58.011Z,15.60
2023-04-16T16:17:06.831Z,15.50
2023-04-16T16:20:15.882Z,15.50
2023-04-16T16:23:25.944Z,15.50
2023-04-16T16:26:34.337Z,15.40
2023-04-16T16:29:42.807Z,15.30
2023-04-16T16:32:51.288Z,15.20
2023-04-16T16:35:59.810Z,15.20
2023-04-16T16:39:09.892Z,15.10
2023-04-16T16:42:19.013Z,15.10
2023-04-16T16:45:28.255Z,15.10
2023-04-16T16:48:36.654Z,15.00
2023-04-16T16:51:46.728Z,15.00
2023-04-16T16:54:56.886Z,15.00
2023-04-16T16:58:05.255Z,14.90
2023-04-16T17:01:13.721Z,14.90
2023-04-16T17:04:22.138Z,14.80
2023-04-16T17:07:30.623Z,14.70
2023-04-16T17:10:40.608Z,14.70
2023-04-16T17:13:48.906Z,14.60
2023-04-16T17:16:57.368Z,14.50
2023-04-16T17:20:09.360Z,14.50
2023-04-16T17:23:17.962Z,14.40
2023-04-16T17:26:27.717Z,14.30
2023-04-16T17:29:36.239Z,14.30
2023-04-16T17:32:44.724Z,14.20
2023-04-16T17:35:53.245Z,14.10
2023-04-16T17:39:01.682Z,14.10
2023-04-16T17:42:11.468Z,14.00
2023-04-16T17:45:19.986Z,13.90
2023-04-16T17:48:28.374Z,13.90
2023-04-16T17:51:36.684Z,13.80
2023-04-16T17:54:44.983Z,13.70
2023-04-16T17:57:54.739Z,13.50
2023-04-16T18:01:03.667Z,13.40
2023-04-16T18:04:12.747Z,13.30
2023-04-16T18:07:21.615Z,13.20
2023-04-16T18:10:32.759Z,13.10
2023-04-16T18:13:43.667Z,13.00
2023-04-16T18:16:52.054Z,12.90
2023-04-16T18:20:00.349Z,12.80
2023-04-16T18:23:08.760Z,12.70
2023-04-16T18:26:20.568Z,12.60
2023-04-16T18:29:33.823Z,12.50
2023-04-16T18:32:54.970Z,12.30
2023-04-16T18:36:11.809Z,12.20
2023-04-16T18:39:20.687Z,12.10
2023-04-16T18:42:29.388Z,12.10
2023-04-16T18:48:48.328Z,11.80
2023-04-16T18:51:56.950Z,11.70
2023-04-16T18:55:05.723Z,11.60
2023-04-16T18:58:14.006Z,11.60
2023-04-16T19:01:23.892Z,11.60
2023-04-16T19:04:32.615Z,11.50
2023-04-16T19:07:41.811Z,11.40
2023-04-16T19:10:50.789Z,11.30
2023-04-16T19:14:02.049Z,11.30
2023-04-16T19:17:12.395Z,11.20
2023-04-16T19:20:21.073Z,11.10
2023-04-16T19:23:29.728Z,11.00
2023-04-16T19:26:38.133Z,10.90
2023-04-16T19:29:47.086Z,10.90
2023-04-16T19:32:57.326Z,10.80
2023-04-16T19:36:06.099Z,10.80
2023-04-16T19:39:14.499Z,10.70
2023-04-16T19:42:23.023Z,10.60
2023-04-16T19:45:31.431Z,10.50
2023-04-16T19:48:41.320Z,10.40
2023-04-16T19:51:49.688Z,10.40
2023-04-16T19:54:58.276Z,10.30
2023-04-16T19:58:06.854Z,10.30
2023-04-16T20:01:15.490Z,10.20
2023-04-16T20:04:25.460Z,10.20
2023-04-16T20:07:33.941Z,10.10
2023-04-16T20:10:42.283Z,9.90
2023-04-16T20:13:50.736Z,9.80
2023-04-16T20:16:59.152Z,9.80
2023-04-16T20:20:11.226Z,9.70
2023-04-16T20:23:19.602Z,9.60
2023-04-16T20:26:33.529Z,9.50
2023-04-16T20:29:42.009Z,9.50
2023-04-16T20:32:50.514Z,9.40
2023-04-16T20:36:00.219Z,9.40
2023-04-16T20:39:09.712Z,9.30
2023-04-16T20:42:22.147Z,9.30
2023-04-16T20:45:38.165Z,9.20
2023-04-16T20:48:46.642Z,9.20
2023-04-16T20:51:56.759Z,9.10
2023-04-16T20:55:05.857Z,9.00
2023-04-16T20:58:14.169Z,8.90
2023-04-16T21:01:22.675Z,8.90
2023-04-16T21:04:31.303Z,8.90
2023-04-16T21:07:41.573Z,8.80
2023-04-16T21:10:50.581Z,8.70
2023-04-16T21:13:59.000Z,8.70
2023-04-16T21:17:07.363Z,8.60
2023-04-16T21:20:16.012Z,8.60
2023-04-16T21:23:25.930Z,8.60
2023-04-16T21:26:34.285Z,8.50
2023-04-16T21:29:42.614Z,8.60
2023-04-16T21:32:51.180Z,8.40
2023-04-16T21:35:59.764Z,8.40
2023-04-16T21:39:09.657Z,8.30
2023-04-16T21:42:18.231Z,8.30
2023-04-16T21:45:26.759Z,8.30
2023-04-16T21:48:35.871Z,8.40
2023-04-16T21:51:46.431Z,8.20
2023-04-16T21:54:56.199Z,8.20
2023-04-16T21:58:04.596Z,8.20
2023-04-16T22:01:12.992Z,8.10
2023-04-16T22:04:26.118Z,8.10
2023-04-16T22:07:34.539Z,8.00
2023-04-16T22:10:44.294Z,8.00
2023-04-16T22:13:53.685Z,7.90
2023-04-16T22:17:02.248Z,7.90
2023-04-16T22:20:12.850Z,7.70
2023-04-16T22:23:21.383Z,7.60
2023-04-16T22:26:31.262Z,7.40
2023-04-16T22:29:39.563Z,7.40
2023-04-16T22:32:47.964Z,7.30
2023-04-16T22:35:56.368Z,7.20
2023-04-16T22:39:08.730Z,7.10
2023-04-16T22:42:18.552Z,7.00
2023-04-16T22:45:27.325Z,6.90
2023-04-16T22:48:36.623Z,7.00
2023-04-16T22:51:44.954Z,6.90
2023-04-16T22:54:53.306Z,7.00
2023-04-16T22:58:03.097Z,7.00
2023-04-16T23:01:11.582Z,6.90
2023-04-16T23:04:19.999Z,6.70
2023-04-16T23:07:28.445Z,6.80
2023-04-16T23:10:36.894Z,6.80
2023-04-16T23:13:46.595Z,6.80
2023-04-16T23:16:54.940Z,6.80
2023-04-16T23:20:05.243Z,6.70
2023-04-16T23:23:13.645Z,6.50
2023-04-16T23:26:22.001Z,6.40
2023-04-16T23:29:31.693Z,6.30
2023-04-16T23:32:40.141Z,6.30
2023-04-16T23:35:48.569Z,6.10
2023-04-16T23:38:56.844Z,6.00
2023-04-16T23:42:05.389Z,6.00
2023-04-16T23:45:15.227Z,6.00
2023-04-16T23:48:23.719Z,6.00
2023-04-16T23:51:32.137Z,5.90
2023-04-16T23:54:40.492Z,5.80
2023-04-16T23:57:48.864Z,5.80
